createdAt,value
2024-02-23T00:02:24.956Z,4.90
2024-02-23T00:07:28.690Z,4.10
2024-02-23T00:12:30.512Z,4.40
2024-02-23T00:17:32.705Z,4.80
2024-02-23T00:22:35.404Z,3.90
2024-02-23T00:27:37.828Z,4.20
2024-02-23T00:32:39.933Z,4.30
2024-02-23T00:37:41.977Z,4.00
2024-02-23T00:47:48.200Z,4.40
2024-02-23T00:52:50.202Z,3.80
2024-02-23T01:02:54.309Z,3.90
2024-02-23T01:07:56.346Z,4.60
2024-02-23T01:18:00.858Z,4.40
2024-02-23T01:23:03.136Z,3.60
2024-02-23T01:28:05.510Z,4.40
2024-02-23T01:33:07.576Z,4.30
2024-02-23T01:38:09.511Z,4.10
2024-02-23T01:43:11.534Z,4.70
2024-02-23T01:48:14.037Z,3.60
2024-02-23T01:53:16.971Z,4.20
2024-02-23T01:58:19.316Z,3.70
2024-02-23T02:03:21.291Z,4.10
2024-02-23T02:08:23.503Z,3.70
2024-02-23T02:13:25.395Z,3.60
2024-02-23T02:18:27.310Z,3.20
2024-02-23T02:28:31.480Z,4.00
2024-02-23T02:38:35.655Z,3.70
2024-02-23T02:48:39.738Z,3.90
2024-02-23T02:53:41.780Z,3.60
2024-02-23T03:03:45.581Z,3.50
2024-02-23T03:08:47.479Z,4.00
2024-02-23T03:13:49.293Z,4.20
2024-02-23T03:18:51.558Z,4.20
2024-02-23T03:23:53.397Z,3.50
2024-02-23T03:28:55.339Z,5.80
2024-02-23T03:33:57.674Z,4.80
2024-02-23T03:44:01.608Z,6.60
2024-02-23T03:54:05.432Z,7.20
2024-02-23T03:59:07.412Z,6.40
2024-02-23T04:04:09.483Z,7.80
2024-02-23T04:14:13.669Z,5.50
2024-02-23T04:19:15.757Z,6.20
2024-02-23T04:24:17.589Z,5.10
2024-02-23T04:29:19.502Z,5.20
2024-02-23T04:34:21.487Z,5.30
2024-02-23T04:39:23.810Z,5.20
2024-02-23T04:44:25.770Z,5.60
2024-02-23T04:49:27.733Z,6.60
2024-02-23T04:54:29.793Z,6.20
2024-02-23T04:59:33.629Z,7.00
2024-02-23T05:04:35.593Z,6.90
2024-02-23T05:09:37.497Z,7.00
2024-02-23T05:14:39.540Z,6.90
2024-02-23T05:19:41.695Z,7.20
2024-02-23T05:24:45.562Z,9.50
2024-02-23T05:29:47.524Z,8.00
2024-02-23T05:34:52.838Z,5.90
2024-02-23T05:39:55.184Z,7.70
2024-02-23T05:44:57.500Z,8.20
2024-02-23T05:49:59.476Z,6.70
2024-02-23T05:55:01.802Z,7.10
2024-02-23T06:00:04.553Z,8.20
2024-02-23T06:05:14.196Z,8.20
2024-02-23T06:10:16.313Z,7.50
2024-02-23T06:20:21.344Z,7.10
2024-02-23T06:25:23.387Z,10.40
2024-02-23T06:30:25.120Z,8.80
2024-02-23T06:35:27.164Z,10.40
2024-02-23T06:40:37.660Z,8.70
2024-02-23T06:45:47.910Z,10.50
2024-02-23T06:50:50.308Z,8.00
2024-02-23T06:55:52.332Z,7.40
2024-02-23T07:00:54.484Z,9.20
2024-02-23T07:05:56.889Z,7.80
2024-02-23T07:10:59.144Z,8.20
2024-02-23T07:16:02.003Z,6.80
2024-02-23T07:21:04.008Z,7.70
2024-02-23T07:31:07.749Z,7.20
2024-02-23T07:36:15.674Z,5.80
2024-02-23T07:41:20.651Z,5.80
2024-02-23T07:46:26.333Z,6.50
2024-02-23T07:51:29.832Z,5.40
2024-02-23T07:56:31.890Z,5.90
2024-02-23T08:06:35.609Z,5.30
2024-02-23T08:11:37.812Z,5.00
2024-02-23T08:16:39.984Z,3.90
2024-02-23T08:26:44.239Z,4.10
2024-02-23T08:31:46.347Z,4.90
2024-02-23T08:41:50.214Z,4.20
2024-02-23T08:46:52.373Z,4.60
2024-02-23T08:51:54.390Z,4.40
2024-02-23T08:56:56.376Z,5.70
2024-02-23T09:01:58.263Z,6.20
2024-02-23T09:07:00.230Z,5.80
2024-02-23T09:12:02.273Z,6.00
2024-02-23T09:22:06.569Z,7.20
2024-02-23T09:27:08.827Z,6.50
2024-02-23T09:32:11.083Z,5.30
2024-02-23T09:37:13.006Z,5.00
2024-02-23T09:42:15.910Z,4.00
2024-02-23T09:47:18.600Z,4.30
2024-02-23T09:52:22.583Z,4.10
2024-02-23T09:57:25.316Z,4.30
2024-02-23T10:02:27.158Z,4.30
2024-02-23T10:07:29.109Z,4.80
2024-02-23T10:12:31.079Z,4.10
2024-02-23T10:17:36.356Z,4.80
2024-02-23T10:22:39.606Z,4.40
2024-02-23T10:32:44.176Z,4.50
2024-02-23T10:37:51.256Z,3.90
2024-02-23T10:42:58.083Z,4.30
2024-02-23T10:48:00.863Z,4.40
2024-02-23T10:53:10.124Z,4.20
2024-02-23T10:58:14.366Z,5.00
2024-02-23T11:03:17.124Z,5.50
2024-02-23T11:08:20.935Z,4.80
2024-02-23T11:13:34.880Z,4.90
2024-02-23T11:18:38.004Z,4.90
2024-02-23T11:23:44.098Z,7.20
2024-02-23T11:28:54.986Z,5.30
2024-02-23T11:33:58.190Z,6.40
2024-02-23T11:39:01.568Z,6.40
2024-02-23T11:44:04.774Z,6.70
2024-02-23T11:49:07.189Z,5.60
2024-02-23T11:54:10.015Z,5.90
2024-02-23T11:59:12.017Z,5.30
2024-02-23T12:09:16.822Z,7.70
2024-02-23T12:14:19.161Z,7.30
2024-02-23T12:19:21.449Z,6.80
2024-02-23T12:24:24.524Z,6.40
2024-02-23T12:29:26.827Z,6.10
2024-02-23T12:34:30.110Z,5.60
2024-02-23T12:39:33.301Z,6.00
2024-02-23T12:44:36.275Z,5.60
2024-02-23T12:49:39.717Z,5.90
2024-02-23T12:54:43.188Z,5.90
2024-02-23T12:59:45.254Z,5.20
2024-02-23T13:04:51.824Z,3.90
2024-02-23T13:09:53.789Z,3.50
2024-02-23T13:20:05.720Z,3.80
2024-02-23T13:25:13.233Z,5.50
2024-02-23T13:30:16.687Z,4.60
2024-02-23T13:35:18.791Z,4.90
2024-02-23T13:40:20.933Z,5.10
2024-02-23T13:50:27.476Z,4.70
2024-02-23T13:55:29.961Z,7.00
2024-02-23T14:00:31.981Z,6.90
2024-02-23T14:10:36.137Z,6.30
2024-02-23T14:15:38.004Z,9.00
2024-02-23T14:25:43.705Z,7.70
2024-02-23T14:30:45.633Z,9.10
2024-02-23T14:35:48.053Z,6.90
2024-02-23T14:40:50.422Z,5.80
2024-02-23T14:45:53.879Z,8.30
2024-02-23T14:50:56.411Z,17.10
2024-02-23T14:55:58.461Z,17.50
2024-02-23T15:01:00.671Z,11.90
2024-02-23T15:06:03.200Z,12.00
2024-02-23T15:11:06.566Z,13.20
2024-02-23T15:16:08.630Z,15.20
2024-02-23T15:21:10.594Z,15.60
2024-02-23T15:26:12.689Z,18.70
2024-02-23T15:31:15.016Z,24.30
2024-02-23T15:36:17.128Z,29.10
2024-02-23T15:41:19.002Z,22.70
2024-02-23T15:46:20.866Z,23.30
2024-02-23T15:51:33.794Z,20.80
2024-02-23T15:56:44.992Z,26.90
2024-02-23T16:01:47.101Z,27.00
2024-02-23T16:11:51.297Z,21.40
2024-02-23T16:16:54.695Z,20.90
2024-02-23T16:21:56.939Z,20.20
2024-02-23T16:26:58.982Z,16.70
2024-02-23T16:32:01.146Z,20.80
2024-02-23T16:37:03.478Z,28.20
2024-02-23T16:42:06.751Z,29.10
2024-02-23T16:47:08.610Z,30.40
2024-02-23T16:52:10.587Z,27.80
2024-02-23T17:02:14.483Z,30.50
2024-02-23T17:12:21.879Z,27.90
2024-02-23T17:17:24.008Z,29.10
2024-02-23T17:22:27.940Z,31.30
2024-02-23T17:27:29.902Z,28.20
2024-02-23T17:32:31.946Z,29.30
2024-02-23T17:37:34.105Z,31.00
2024-02-23T17:42:36.064Z,29.30
2024-02-23T17:47:38.702Z,33.90
2024-02-23T17:52:40.563Z,28.70
2024-02-23T17:57:42.540Z,26.50
2024-02-23T18:02:44.698Z,26.10
2024-02-23T18:07:46.755Z,22.80
2024-02-23T18:12:48.733Z,20.90
2024-02-23T18:17:52.632Z,21.90
2024-02-23T18:22:54.789Z,20.20
2024-02-23T18:27:56.817Z,22.20
2024-02-23T18:32:58.943Z,21.10
2024-02-23T18:38:01.307Z,19.10
2024-02-23T18:43:05.037Z,20.30
2024-02-23T18:48:07.872Z,21.30
2024-02-23T18:53:09.875Z,23.30
2024-02-23T18:58:13.419Z,22.90
2024-02-23T19:03:15.277Z,22.10
2024-02-23T19:08:17.266Z,24.70
2024-02-23T19:18:21.849Z,19.50
2024-02-23T19:23:23.957Z,18.20
2024-02-23T19:33:27.734Z,17.30
2024-02-23T19:38:29.647Z,17.60
2024-02-23T19:43:31.553Z,17.30
2024-02-23T19:48:33.492Z,15.00
2024-02-23T19:53:35.775Z,14.80
2024-02-23T19:58:37.801Z,15.50
2024-02-23T20:03:39.734Z,16.10
2024-02-23T20:08:41.854Z,16.00
2024-02-23T20:13:44.038Z,13.80
2024-02-23T20:23:48.262Z,15.80
2024-02-23T20:28:50.191Z,16.60
2024-02-23T20:33:52.181Z,17.30
2024-02-23T20:38:54.372Z,16.70
2024-02-23T20:49:02.657Z,17.20
2024-02-23T20:54:05.390Z,18.40
2024-02-23T20:59:07.317Z,16.90
2024-02-23T21:04:09.345Z,17.50
2024-02-23T21:09:13.015Z,15.80
2024-02-23T21:14:16.166Z,16.30
2024-02-23T21:19:18.050Z,14.90
2024-02-23T21:24:19.903Z,15.70
2024-02-23T21:29:22.074Z,16.00
2024-02-23T21:34:24.164Z,13.30
2024-02-23T21:39:26.300Z,14.30
2024-02-23T21:44:28.288Z,12.80
2024-02-23T21:49:30.209Z,13.40
2024-02-23T21:54:32.959Z,11.10
2024-02-23T21:59:34.978Z,10.50
2024-02-23T22:04:39.731Z,11.70
2024-02-23T22:09:46.083Z,11.60
2024-02-23T22:14:48.119Z,11.20
2024-02-23T22:19:50.156Z,11.60
2024-02-23T22:29:54.276Z,10.40
2024-02-23T22:34:56.365Z,10.70
2024-02-23T22:39:58.423Z,10.90
2024-02-23T22:45:00.484Z,10.90
2024-02-23T22:50:03.463Z,10.80
2024-02-23T22:55:06.228Z,10.40
2024-02-23T23:00:10.791Z,11.80
2024-02-23T23:05:13.013Z,10.60
2024-02-23T23:10:14.956Z,11.60
2024-02-23T23:15:16.948Z,10.90
2024-02-23T23:20:20.674Z,9.50
2024-02-23T23:25:22.708Z,9.00
2024-02-23T23:30:24.644Z,10.80
2024-02-23T23:35:26.742Z,10.90
2024-02-23T23:40:28.631Z,10.40
2024-02-23T23:45:30.796Z,10.70
2024-02-23T23:50:32.862Z,11.10
2024-02-23T23:55:35.101Z,10.50
